Flight Track Log - Related Links

Times and Time Zones

All times are in EDT time to prevent confusion due to time zone crossing. See the N1108P flight status page for this flight to view local times or setup timezone preferences in your user account.

Time Position Orientation Groundspeed Altitude Reporting Facility
EDT Latitude Longitude Course Direction KTS MPH feet Rate Location/Type
Tue 10:47:51 AM 34.4050 -119.8344 100° East 99 114 600  Level Los Angeles Center
Tue 10:48:52 AM 34.3792 -119.8247 163° South 95 109 1,300 675 Climbing Los Angeles Center
Tue 10:49:11 AM 34.3725 -119.8239 174° South 116 133 1,500 545 Climbing Los Angeles Center
Tue 10:49:58 AM 34.3644 -119.7981 111° Southeast 102 117 1,900 581 Climbing Los Angeles Center
Tue 10:50:13 AM 34.3603 -119.7956 154° Southeast 99 114 2,100 590 Climbing Los Angeles Center
Tue 10:50:59 AM 34.3589 -119.7633 93° East 101 116 2,500 590 Climbing Los Angeles Center
Tue 10:51:14 AM 34.3561 -119.7606 140° Southeast 100 115 2,700 590 Climbing Los Angeles Center
Tue 10:52:00 AM 34.3539 -119.7311 95° East 96 110 3,100 581 Climbing Los Angeles Center
Tue 10:52:16 AM 34.3528 -119.7281 114° Southeast 99 114 3,300 500 Climbing Los Angeles Center
Tue 10:53:00 AM 34.3902 -119.5960 100° East  Level Estimated
Tue 10:53:00 AM 34.3489 -119.6989 99° East 98 113 3,600  Level Los Angeles Center
Tue 10:53:18 AM 34.3475 -119.6889 100° East 99 114 3,900 649 Climbing Los Angeles Center
Tue 10:53:37 AM 34.3536 -119.6742 63° Northeast 102 117 4,000 492 Climbing Los Angeles Center
Tue 10:54:19 AM 34.3408 -119.6542 128° Southeast 101 116 4,400 532 Climbing Los Angeles Center
Tue 10:54:56 AM 34.3456 -119.6272 78° East 109 125 4,700 581 Climbing Los Angeles Center
Tue 10:55:21 AM 34.3353 -119.6178 143° Southeast 106 122 5,000 492 Climbing Los Angeles Center
Tue 10:55:57 AM 34.3392 -119.5875 81° East 113 130 5,200 484 Climbing Los Angeles Center
Tue 10:56:23 AM 34.3294 -119.5786 143° Southeast 112 129 5,500 500 Climbing Los Angeles Center
Tue 10:56:57 AM 34.3311 -119.5511 86° East 117 135 5,700 295 Climbing Los Angeles Center
Tue 10:57:24 AM 34.3236 -119.5408 131° Southeast 114 131 5,800 -218 Climbing Los Angeles Center
Tue 10:57:52 AM 34.3225 -119.5122 93° East 132 152 5,500 -194 Descending Los Angeles Center
Tue 10:58:26 AM 34.3144 -119.4922 116° Southeast 132 152 5,600  Climbing Los Angeles Center
Tue 10:58:52 AM 34.3156 -119.4600 88° East 156 180 5,500  Descending Los Angeles Center
Tue 10:59:28 AM 34.3058 -119.4442 127° Southeast 142 163 5,600  Climbing Los Angeles Center
Tue 10:59:53 AM 34.3072 -119.4131 87° East 147 169 5,500  Descending Los Angeles Center
Tue 11:00:30 AM 34.2986 -119.3847 110° East 146 168 5,600  Climbing Los Angeles Center
Tue 11:00:48 AM 34.2992 -119.3661 88° East 146 168 5,500  Descending Los Angeles Center
Tue 11:01:31 AM 34.2919 -119.3356 106° East 148 170 5,600  Climbing Los Angeles Center
Tue 11:01:48 AM 34.2914 -119.3219 93° East 150 173 5,500  Descending Los Angeles Center
Tue 11:02:33 AM 34.2839 -119.2867 104° East 148 170 5,600  Climbing Los Angeles Center
Tue 11:02:49 AM 34.2828 -119.2725 95° East 149 171 5,500  Descending Los Angeles Center
Tue 11:03:35 AM 34.2756 -119.2386 104° East 148 170 5,600 56 Climbing Los Angeles Center
Tue 11:04:37 AM 34.2675 -119.1903 101° East 147 169 5,600  Level Los Angeles Center
Tue 11:05:39 AM 34.2597 -119.1419 101° East 147 169 5,600  Level Los Angeles Center
Tue 11:06:41 AM 34.2522 -119.0939 101° East 147 169 5,600 -77 Level Los Angeles Center
Tue 11:06:57 AM 34.2486 -119.0703 100° East 147 169 5,500  Descending Los Angeles Center
Tue 11:07:42 AM 34.2431 -119.0358 101° East 147 169 5,600 56 Climbing Los Angeles Center
Tue 11:08:44 AM 34.2356 -118.9872 101° East 147 169 5,600 -48 Level Los Angeles Center
Tue 11:09:46 AM 34.2281 -118.9381 100° East 148 170 5,500 -48 Descending Los Angeles Center
Tue 11:10:49 AM 34.2192 -118.8892 102° East 148 170 5,500 -97 Level Los Angeles Center
Tue 11:11:50 AM 34.2119 -118.8378 100° East 154 177 5,300 -195 Descending Los Angeles Center
Tue 11:12:52 AM 34.2006 -118.7878 105° East 153 176 5,100 -242 Descending Los Angeles Center
Tue 11:13:54 AM 34.1886 -118.7283 104° East 152 175 4,800 -387 Descending Los Angeles Center
Tue 11:14:56 AM 34.1858 -118.6742 94° East 155 178 4,300 -451 Descending Los Angeles Center
Tue 11:16:07 AM 34.2000 -118.6000 77° East 160 184 3,800 -412 Descending Southern California TRACON
Tue 11:17:07 AM 34.2000 -118.5500 90° East 157 181 3,400 -400 Descending Southern California TRACON
Tue 11:18:07 AM 34.2000 -118.5000 90° East 153 176 3,000 -700 Descending Southern California TRACON
Tue 11:19:07 AM 34.2000 -118.4500 90° East 151 174 2,000 -800 Descending Southern California TRACON
Tue 11:20:07 AM 34.2000 -118.4000 90° East 128 147 1,400 -450 Descending Southern California TRACON
Tue 11:21:07 AM 34.1989 -118.3714 93° East 143 165 1,100 -300 Descending Los Angeles Center

Login

Don't have an account? Register now (free) for customized features, flight alerts, and more!